Report METAR

 

LIMJ -
Dati ricevuti: 06/10/2022 19:50
Sereno
Sereno
 Vento da O
Vento: O 6 km/h
Temperatura: 21°C
P.to Rugiada: 18°C
Umidità: 83%
Barometro: 1027 hPa
Summary: Sereno
Visibility: superiore a 10 km
2022/10/06 17:50 LIMJ 061750Z 26003KT 220V280 CAVOK 21/18 Q1027